sensor_id;sensor_type;location;lat;lon;timestamp;P1;durP1;ratioP1;P2;durP2;ratioP2
3337;SDS011;1682;49.286;10.788;2023-08-30T00:00:09;10.73;;;6.00;;
3337;SDS011;1682;49.286;10.788;2023-08-30T00:02:57;5.43;;;5.00;;
3337;SDS011;1682;49.286;10.788;2023-08-30T00:05:46;14.60;;;6.87;;
3337;SDS011;1682;49.286;10.788;2023-08-30T00:08:34;6.83;;;5.87;;
3337;SDS011;1682;49.286;10.788;2023-08-30T00:11:22;6.47;;;5.87;;
3337;SDS011;1682;49.286;10.788;2023-08-30T00:14:09;6.77;;;6.17;;
3337;SDS011;1682;49.286;10.788;2023-08-30T00:16:56;7.43;;;6.60;;
3337;SDS011;1682;49.286;10.788;2023-08-30T00:19:44;10.47;;;8.87;;
3337;SDS011;1682;49.286;10.788;2023-08-30T00:22:33;6.93;;;6.40;;
3337;SDS011;1682;49.286;10.788;2023-08-30T00:25:21;6.60;;;6.10;;
3337;SDS011;1682;49.286;10.788;2023-08-30T00:28:08;7.97;;;7.10;;
3337;SDS011;1682;49.286;10.788;2023-08-30T00:30:56;11.93;;;8.07;;
3337;SDS011;1682;49.286;10.788;2023-08-30T00:33:43;7.70;;;6.50;;
3337;SDS011;1682;49.286;10.788;2023-08-30T00:36:31;8.30;;;6.40;;
3337;SDS011;1682;49.286;10.788;2023-08-30T00:39:20;8.20;;;7.50;;
3337;SDS011;1682;49.286;10.788;2023-08-30T00:42:07;9.97;;;6.87;;
3337;SDS011;1682;49.286;10.788;2023-08-30T00:44:55;7.77;;;7.07;;
3337;SDS011;1682;49.286;10.788;2023-08-30T00:47:43;7.40;;;6.70;;
3337;SDS011;1682;49.286;10.788;2023-08-30T00:50:31;9.33;;;8.47;;
3337;SDS011;1682;49.286;10.788;2023-08-30T00:53:18;8.00;;;7.27;;
3337;SDS011;1682;49.286;10.788;2023-08-30T00:56:07;8.83;;;8.03;;
3337;SDS011;1682;49.286;10.788;2023-08-30T00:58:55;8.30;;;7.40;;
3337;SDS011;1682;49.286;10.788;2023-08-30T01:01:42;10.73;;;7.97;;
3337;SDS011;1682;49.286;10.788;2023-08-30T01:04:30;8.70;;;7.63;;
3337;SDS011;1682;49.286;10.788;2023-08-30T01:07:18;10.17;;;7.97;;
3337;SDS011;1682;49.286;10.788;2023-08-30T01:10:06;11.20;;;9.20;;
3337;SDS011;1682;49.286;10.788;2023-08-30T01:12:56;19.47;;;13.67;;
3337;SDS011;1682;49.286;10.788;2023-08-30T01:15:46;35.60;;;21.27;;
3337;SDS011;1682;49.286;10.788;2023-08-30T01:18:34;17.43;;;13.60;;
3337;SDS011;1682;49.286;10.788;2023-08-30T01:21:25;31.40;;;24.80;;
3337;SDS011;1682;49.286;10.788;2023-08-30T01:24:14;14.47;;;12.97;;
3337;SDS011;1682;49.286;10.788;2023-08-30T01:27:11;12.07;;;10.80;;
3337;SDS011;1682;49.286;10.788;2023-08-30T01:29:58;12.97;;;11.60;;
3337;SDS011;1682;49.286;10.788;2023-08-30T01:32:46;15.23;;;12.40;;
3337;SDS011;1682;49.286;10.788;2023-08-30T01:35:34;15.70;;;12.43;;
3337;SDS011;1682;49.286;10.788;2023-08-30T01:38:22;16.73;;;15.13;;
3337;SDS011;1682;49.286;10.788;2023-08-30T01:41:10;16.73;;;14.93;;
3337;SDS011;1682;49.286;10.788;2023-08-30T01:43:59;23.80;;;18.70;;
3337;SDS011;1682;49.286;10.788;2023-08-30T01:46:49;20.87;;;17.03;;
3337;SDS011;1682;49.286;10.788;2023-08-30T01:49:36;20.27;;;17.20;;
3337;SDS011;1682;49.286;10.788;2023-08-30T01:52:25;24.17;;;17.10;;
3337;SDS011;1682;49.286;10.788;2023-08-30T01:55:13;20.57;;;16.43;;
3337;SDS011;1682;49.286;10.788;2023-08-30T01:58:01;21.20;;;16.53;;
3337;SDS011;1682;49.286;10.788;2023-08-30T02:00:50;20.07;;;15.90;;
3337;SDS011;1682;49.286;10.788;2023-08-30T02:03:37;21.83;;;17.10;;
3337;SDS011;1682;49.286;10.788;2023-08-30T02:06:26;19.90;;;16.17;;
3337;SDS011;1682;49.286;10.788;2023-08-30T02:09:14;20.80;;;15.63;;
3337;SDS011;1682;49.286;10.788;2023-08-30T02:12:05;20.80;;;16.73;;
3337;SDS011;1682;49.286;10.788;2023-08-30T02:14:54;22.80;;;20.07;;
3337;SDS011;1682;49.286;10.788;2023-08-30T02:17:43;25.00;;;19.40;;
3337;SDS011;1682;49.286;10.788;2023-08-30T02:20:31;21.90;;;17.90;;
3337;SDS011;1682;49.286;10.788;2023-08-30T02:23:19;20.57;;;17.53;;
3337;SDS011;1682;49.286;10.788;2023-08-30T02:26:09;17.83;;;15.93;;
3337;SDS011;1682;49.286;10.788;2023-08-30T02:28:57;27.83;;;18.73;;
3337;SDS011;1682;49.286;10.788;2023-08-30T02:31:44;25.50;;;20.83;;
3337;SDS011;1682;49.286;10.788;2023-08-30T02:34:33;29.63;;;20.40;;
3337;SDS011;1682;49.286;10.788;2023-08-30T02:37:21;19.93;;;16.97;;
3337;SDS011;1682;49.286;10.788;2023-08-30T02:40:09;19.20;;;17.17;;
3337;SDS011;1682;49.286;10.788;2023-08-30T02:42:56;21.80;;;17.33;;
3337;SDS011;1682;49.286;10.788;2023-08-30T02:45:44;22.93;;;17.90;;
3337;SDS011;1682;49.286;10.788;2023-08-30T02:48:31;28.33;;;21.87;;
3337;SDS011;1682;49.286;10.788;2023-08-30T02:51:20;21.63;;;19.10;;
3337;SDS011;1682;49.286;10.788;2023-08-30T02:54:08;19.40;;;16.33;;
3337;SDS011;1682;49.286;10.788;2023-08-30T02:56:57;19.63;;;16.13;;
3337;SDS011;1682;49.286;10.788;2023-08-30T02:59:45;26.13;;;20.23;;
3337;SDS011;1682;49.286;10.788;2023-08-30T03:02:32;22.50;;;18.37;;
3337;SDS011;1682;49.286;10.788;2023-08-30T03:05:20;23.17;;;16.63;;
3337;SDS011;1682;49.286;10.788;2023-08-30T03:08:09;23.10;;;18.57;;
3337;SDS011;1682;49.286;10.788;2023-08-30T03:11:06;23.77;;;19.13;;
3337;SDS011;1682;49.286;10.788;2023-08-30T03:13:54;28.53;;;20.00;;
3337;SDS011;1682;49.286;10.788;2023-08-30T03:16:41;25.30;;;18.20;;
3337;SDS011;1682;49.286;10.788;2023-08-30T03:19:30;26.60;;;17.70;;
3337;SDS011;1682;49.286;10.788;2023-08-30T03:22:18;21.10;;;17.87;;
3337;SDS011;1682;49.286;10.788;2023-08-30T03:25:07;20.40;;;17.43;;
3337;SDS011;1682;49.286;10.788;2023-08-30T03:27:54;21.33;;;17.33;;
3337;SDS011;1682;49.286;10.788;2023-08-30T03:30:42;20.40;;;18.13;;
3337;SDS011;1682;49.286;10.788;2023-08-30T03:33:29;24.20;;;18.70;;
3337;SDS011;1682;49.286;10.788;2023-08-30T03:36:17;24.27;;;18.10;;
3337;SDS011;1682;49.286;10.788;2023-08-30T03:39:05;21.00;;;18.10;;
3337;SDS011;1682;49.286;10.788;2023-08-30T03:41:54;20.53;;;17.73;;
3337;SDS011;1682;49.286;10.788;2023-08-30T03:44:41;19.13;;;16.50;;
3337;SDS011;1682;49.286;10.788;2023-08-30T03:47:29;20.80;;;16.37;;
3337;SDS011;1682;49.286;10.788;2023-08-30T03:50:16;19.93;;;17.30;;
3337;SDS011;1682;49.286;10.788;2023-08-30T03:53:04;21.73;;;17.13;;
3337;SDS011;1682;49.286;10.788;2023-08-30T03:55:51;20.23;;;16.60;;
3337;SDS011;1682;49.286;10.788;2023-08-30T03:58:40;23.67;;;18.80;;
3337;SDS011;1682;49.286;10.788;2023-08-30T04:01:27;20.73;;;15.90;;
3337;SDS011;1682;49.286;10.788;2023-08-30T04:04:15;21.20;;;16.83;;
3337;SDS011;1682;49.286;10.788;2023-08-30T04:07:02;16.87;;;14.90;;
3337;SDS011;1682;49.286;10.788;2023-08-30T04:09:50;17.30;;;15.20;;
3337;SDS011;1682;49.286;10.788;2023-08-30T04:12:37;18.60;;;16.60;;
3337;SDS011;1682;49.286;10.788;2023-08-30T04:15:26;18.03;;;15.93;;
3337;SDS011;1682;49.286;10.788;2023-08-30T04:18:14;18.63;;;16.67;;
3337;SDS011;1682;49.286;10.788;2023-08-30T04:21:01;17.63;;;15.57;;
3337;SDS011;1682;49.286;10.788;2023-08-30T04:23:49;19.13;;;17.10;;
3337;SDS011;1682;49.286;10.788;2023-08-30T04:32:12;25.70;;;19.27;;
3337;SDS011;1682;49.286;10.788;2023-08-30T04:34:59;25.03;;;19.20;;
3337;SDS011;1682;49.286;10.788;2023-08-30T04:37:48;28.70;;;19.33;;
3337;SDS011;1682;49.286;10.788;2023-08-30T04:40:35;25.90;;;21.00;;
3337;SDS011;1682;49.286;10.788;2023-08-30T04:43:23;22.53;;;19.50;;
3337;SDS011;1682;49.286;10.788;2023-08-30T04:46:10;20.77;;;17.47;;
3337;SDS011;1682;49.286;10.788;2023-08-30T04:48:59;24.90;;;18.77;;
3337;SDS011;1682;49.286;10.788;2023-08-30T04:51:47;22.83;;;18.57;;
3337;SDS011;1682;49.286;10.788;2023-08-30T04:54:34;22.47;;;18.67;;
3337;SDS011;1682;49.286;10.788;2023-08-30T04:57:22;27.87;;;22.00;;
3337;SDS011;1682;49.286;10.788;2023-08-30T05:00:09;26.83;;;21.20;;
3337;SDS011;1682;49.286;10.788;2023-08-30T05:02:57;25.33;;;20.83;;
3337;SDS011;1682;49.286;10.788;2023-08-30T05:05:46;31.13;;;26.20;;
3337;SDS011;1682;49.286;10.788;2023-08-30T05:08:34;26.23;;;22.70;;
3337;SDS011;1682;49.286;10.788;2023-08-30T05:11:21;26.33;;;21.93;;
3337;SDS011;1682;49.286;10.788;2023-08-30T05:14:08;26.00;;;21.43;;
3337;SDS011;1682;49.286;10.788;2023-08-30T05:16:58;26.20;;;21.60;;
3337;SDS011;1682;49.286;10.788;2023-08-30T05:19:45;26.50;;;20.97;;
3337;SDS011;1682;49.286;10.788;2023-08-30T05:22:34;27.40;;;19.07;;
3337;SDS011;1682;49.286;10.788;2023-08-30T05:25:22;26.17;;;22.37;;
3337;SDS011;1682;49.286;10.788;2023-08-30T05:30:57;26.57;;;21.90;;
3337;SDS011;1682;49.286;10.788;2023-08-30T05:33:44;23.83;;;19.17;;
3337;SDS011;1682;49.286;10.788;2023-08-30T05:36:32;28.40;;;20.60;;
3337;SDS011;1682;49.286;10.788;2023-08-30T05:39:20;40.40;;;31.93;;
3337;SDS011;1682;49.286;10.788;2023-08-30T05:42:08;28.97;;;23.13;;
3337;SDS011;1682;49.286;10.788;2023-08-30T05:44:55;31.67;;;24.70;;
3337;SDS011;1682;49.286;10.788;2023-08-30T05:47:43;28.60;;;23.00;;
3337;SDS011;1682;49.286;10.788;2023-08-30T05:50:30;33.37;;;26.90;;
3337;SDS011;1682;49.286;10.788;2023-08-30T05:53:18;27.90;;;20.10;;
3337;SDS011;1682;49.286;10.788;2023-08-30T05:56:07;26.80;;;20.43;;
3337;SDS011;1682;49.286;10.788;2023-08-30T05:58:54;23.03;;;20.70;;
3337;SDS011;1682;49.286;10.788;2023-08-30T06:01:41;23.37;;;18.80;;
3337;SDS011;1682;49.286;10.788;2023-08-30T06:04:29;22.90;;;18.50;;
3337;SDS011;1682;49.286;10.788;2023-08-30T06:07:16;24.33;;;20.07;;
3337;SDS011;1682;49.286;10.788;2023-08-30T06:10:04;27.30;;;20.07;;
3337;SDS011;1682;49.286;10.788;2023-08-30T06:12:53;24.37;;;18.83;;
3337;SDS011;1682;49.286;10.788;2023-08-30T06:15:41;23.97;;;19.27;;
3337;SDS011;1682;49.286;10.788;2023-08-30T06:18:30;21.53;;;18.50;;
3337;SDS011;1682;49.286;10.788;2023-08-30T06:21:18;24.73;;;20.20;;
3337;SDS011;1682;49.286;10.788;2023-08-30T06:24:05;27.07;;;20.70;;
3337;SDS011;1682;49.286;10.788;2023-08-30T06:26:53;28.77;;;23.03;;
3337;SDS011;1682;49.286;10.788;2023-08-30T06:29:43;25.87;;;19.17;;
3337;SDS011;1682;49.286;10.788;2023-08-30T06:32:30;25.57;;;19.00;;
3337;SDS011;1682;49.286;10.788;2023-08-30T06:35:18;38.17;;;23.40;;
3337;SDS011;1682;49.286;10.788;2023-08-30T06:38:06;29.47;;;22.17;;
3337;SDS011;1682;49.286;10.788;2023-08-30T06:40:54;24.57;;;20.17;;
3337;SDS011;1682;49.286;10.788;2023-08-30T06:43:41;24.20;;;18.83;;
3337;SDS011;1682;49.286;10.788;2023-08-30T06:46:30;23.00;;;16.97;;
3337;SDS011;1682;49.286;10.788;2023-08-30T06:49:17;22.90;;;18.83;;
3337;SDS011;1682;49.286;10.788;2023-08-30T06:52:05;22.83;;;18.53;;
3337;SDS011;1682;49.286;10.788;2023-08-30T06:54:53;23.00;;;18.17;;
3337;SDS011;1682;49.286;10.788;2023-08-30T06:57:40;24.13;;;19.30;;
3337;SDS011;1682;49.286;10.788;2023-08-30T07:00:28;27.13;;;21.27;;
3337;SDS011;1682;49.286;10.788;2023-08-30T07:03:17;23.53;;;17.57;;
3337;SDS011;1682;49.286;10.788;2023-08-30T07:06:04;22.90;;;19.00;;
3337;SDS011;1682;49.286;10.788;2023-08-30T07:08:51;21.50;;;17.63;;
3337;SDS011;1682;49.286;10.788;2023-08-30T07:11:39;21.20;;;17.50;;
3337;SDS011;1682;49.286;10.788;2023-08-30T07:14:30;29.43;;;22.17;;
3337;SDS011;1682;49.286;10.788;2023-08-30T07:17:17;24.97;;;20.13;;
3337;SDS011;1682;49.286;10.788;2023-08-30T07:20:07;20.60;;;18.40;;
3337;SDS011;1682;49.286;10.788;2023-08-30T07:22:55;25.60;;;18.93;;
3337;SDS011;1682;49.286;10.788;2023-08-30T07:25:42;23.37;;;19.10;;
3337;SDS011;1682;49.286;10.788;2023-08-30T07:28:29;24.83;;;20.03;;
3337;SDS011;1682;49.286;10.788;2023-08-30T07:31:17;25.67;;;18.70;;
3337;SDS011;1682;49.286;10.788;2023-08-30T07:34:05;25.83;;;18.50;;
3337;SDS011;1682;49.286;10.788;2023-08-30T07:36:54;20.07;;;17.97;;
3337;SDS011;1682;49.286;10.788;2023-08-30T07:39:42;21.67;;;18.30;;
3337;SDS011;1682;49.286;10.788;2023-08-30T07:42:29;18.47;;;16.53;;
3337;SDS011;1682;49.286;10.788;2023-08-30T07:45:17;23.97;;;19.93;;
3337;SDS011;1682;49.286;10.788;2023-08-30T07:48:04;21.30;;;17.17;;
3337;SDS011;1682;49.286;10.788;2023-08-30T07:50:52;20.87;;;17.90;;
3337;SDS011;1682;49.286;10.788;2023-08-30T07:53:41;23.90;;;19.20;;
3337;SDS011;1682;49.286;10.788;2023-08-30T07:56:28;21.80;;;17.50;;
3337;SDS011;1682;49.286;10.788;2023-08-30T07:59:16;23.77;;;19.70;;
3337;SDS011;1682;49.286;10.788;2023-08-30T08:02:03;21.03;;;18.00;;
3337;SDS011;1682;49.286;10.788;2023-08-30T08:04:53;21.67;;;19.07;;
3337;SDS011;1682;49.286;10.788;2023-08-30T08:07:41;19.23;;;17.27;;
3337;SDS011;1682;49.286;10.788;2023-08-30T08:10:32;19.00;;;16.33;;
3337;SDS011;1682;49.286;10.788;2023-08-30T08:13:20;20.83;;;18.10;;
3337;SDS011;1682;49.286;10.788;2023-08-30T08:16:07;19.57;;;17.47;;
3337;SDS011;1682;49.286;10.788;2023-08-30T08:18:55;21.63;;;16.60;;
3337;SDS011;1682;49.286;10.788;2023-08-30T08:21:44;23.47;;;17.30;;
3337;SDS011;1682;49.286;10.788;2023-08-30T08:24:32;22.93;;;18.10;;
3337;SDS011;1682;49.286;10.788;2023-08-30T08:27:21;22.00;;;16.30;;
3337;SDS011;1682;49.286;10.788;2023-08-30T08:30:08;24.40;;;17.53;;
3337;SDS011;1682;49.286;10.788;2023-08-30T08:32:57;22.70;;;16.87;;
3337;SDS011;1682;49.286;10.788;2023-08-30T08:35:45;19.00;;;17.10;;
3337;SDS011;1682;49.286;10.788;2023-08-30T08:38:32;19.57;;;17.30;;
3337;SDS011;1682;49.286;10.788;2023-08-30T08:41:20;17.37;;;15.37;;
3337;SDS011;1682;49.286;10.788;2023-08-30T08:44:09;18.67;;;16.10;;
3337;SDS011;1682;49.286;10.788;2023-08-30T08:46:57;18.17;;;16.27;;
3337;SDS011;1682;49.286;10.788;2023-08-30T08:49:45;16.07;;;14.37;;
3337;SDS011;1682;49.286;10.788;2023-08-30T08:52:33;18.43;;;16.60;;
3337;SDS011;1682;49.286;10.788;2023-08-30T08:55:20;16.23;;;14.57;;
3337;SDS011;1682;49.286;10.788;2023-08-30T08:58:08;16.17;;;14.57;;
3337;SDS011;1682;49.286;10.788;2023-08-30T09:00:56;17.73;;;16.03;;
3337;SDS011;1682;49.286;10.788;2023-08-30T09:03:45;15.97;;;14.43;;
3337;SDS011;1682;49.286;10.788;2023-08-30T09:06:33;16.73;;;13.93;;
3337;SDS011;1682;49.286;10.788;2023-08-30T09:09:21;15.47;;;14.07;;
3337;SDS011;1682;49.286;10.788;2023-08-30T09:12:09;14.20;;;12.90;;
3337;SDS011;1682;49.286;10.788;2023-08-30T09:14:56;14.63;;;13.13;;
3337;SDS011;1682;49.286;10.788;2023-08-30T09:17:45;13.37;;;12.03;;
3337;SDS011;1682;49.286;10.788;2023-08-30T09:20:32;13.43;;;12.23;;
3337;SDS011;1682;49.286;10.788;2023-08-30T09:23:20;12.37;;;11.27;;
3337;SDS011;1682;49.286;10.788;2023-08-30T09:26:09;12.60;;;11.30;;
3337;SDS011;1682;49.286;10.788;2023-08-30T09:29:00;13.87;;;12.63;;
3337;SDS011;1682;49.286;10.788;2023-08-30T09:31:50;12.73;;;11.73;;
3337;SDS011;1682;49.286;10.788;2023-08-30T09:34:46;11.60;;;10.60;;
3337;SDS011;1682;49.286;10.788;2023-08-30T09:37:34;11.20;;;10.10;;
3337;SDS011;1682;49.286;10.788;2023-08-30T09:40:21;11.50;;;10.30;;
3337;SDS011;1682;49.286;10.788;2023-08-30T09:43:09;11.90;;;10.70;;
3337;SDS011;1682;49.286;10.788;2023-08-30T09:45:57;12.33;;;10.00;;
3337;SDS011;1682;49.286;10.788;2023-08-30T09:48:44;11.03;;;10.03;;
3337;SDS011;1682;49.286;10.788;2023-08-30T09:51:33;10.90;;;10.00;;
3337;SDS011;1682;49.286;10.788;2023-08-30T09:54:22;9.90;;;8.90;;
3337;SDS011;1682;49.286;10.788;2023-08-30T09:57:10;11.03;;;9.83;;
3337;SDS011;1682;49.286;10.788;2023-08-30T09:59:57;11.20;;;10.30;;
3337;SDS011;1682;49.286;10.788;2023-08-30T10:02:46;11.90;;;10.10;;
3337;SDS011;1682;49.286;10.788;2023-08-30T10:05:33;11.30;;;10.30;;
3337;SDS011;1682;49.286;10.788;2023-08-30T10:08:22;10.83;;;9.80;;
3337;SDS011;1682;49.286;10.788;2023-08-30T10:11:14;9.07;;;8.27;;
3337;SDS011;1682;49.286;10.788;2023-08-30T10:14:04;9.53;;;8.70;;
3337;SDS011;1682;49.286;10.788;2023-08-30T10:16:54;8.90;;;8.00;;
3337;SDS011;1682;49.286;10.788;2023-08-30T10:19:45;7.53;;;7.03;;
3337;SDS011;1682;49.286;10.788;2023-08-30T10:22:34;7.00;;;6.40;;
3337;SDS011;1682;49.286;10.788;2023-08-30T10:25:24;6.80;;;6.20;;
3337;SDS011;1682;49.286;10.788;2023-08-30T10:28:13;6.60;;;6.00;;
3337;SDS011;1682;49.286;10.788;2023-08-30T10:31:02;7.00;;;6.50;;
3337;SDS011;1682;49.286;10.788;2023-08-30T10:33:50;7.33;;;6.70;;
3337;SDS011;1682;49.286;10.788;2023-08-30T10:36:37;7.13;;;6.43;;
3337;SDS011;1682;49.286;10.788;2023-08-30T10:39:27;5.40;;;5.00;;
3337;SDS011;1682;49.286;10.788;2023-08-30T10:42:22;6.83;;;6.17;;
3337;SDS011;1682;49.286;10.788;2023-08-30T10:45:10;7.10;;;6.27;;
3337;SDS011;1682;49.286;10.788;2023-08-30T10:47:58;5.60;;;5.20;;
3337;SDS011;1682;49.286;10.788;2023-08-30T10:50:46;5.90;;;5.47;;
3337;SDS011;1682;49.286;10.788;2023-08-30T10:53:33;6.13;;;5.63;;
3337;SDS011;1682;49.286;10.788;2023-08-30T10:56:26;5.93;;;5.43;;
3337;SDS011;1682;49.286;10.788;2023-08-30T10:59:18;6.33;;;5.83;;
3337;SDS011;1682;49.286;10.788;2023-08-30T11:02:06;6.40;;;5.80;;
3337;SDS011;1682;49.286;10.788;2023-08-30T11:04:54;5.60;;;5.10;;
3337;SDS011;1682;49.286;10.788;2023-08-30T11:07:41;6.67;;;5.97;;
3337;SDS011;1682;49.286;10.788;2023-08-30T11:10:29;6.20;;;5.60;;
3337;SDS011;1682;49.286;10.788;2023-08-30T11:13:17;5.60;;;5.20;;
3337;SDS011;1682;49.286;10.788;2023-08-30T11:16:06;6.50;;;5.90;;
3337;SDS011;1682;49.286;10.788;2023-08-30T11:18:54;5.50;;;4.90;;
3337;SDS011;1682;49.286;10.788;2023-08-30T11:21:42;4.70;;;4.30;;
3337;SDS011;1682;49.286;10.788;2023-08-30T11:24:30;4.37;;;4.07;;
3337;SDS011;1682;49.286;10.788;2023-08-30T11:27:18;4.53;;;4.20;;
3337;SDS011;1682;49.286;10.788;2023-08-30T11:30:06;4.50;;;4.20;;
3337;SDS011;1682;49.286;10.788;2023-08-30T11:32:57;6.63;;;6.03;;
3337;SDS011;1682;49.286;10.788;2023-08-30T11:35:44;5.10;;;4.67;;
3337;SDS011;1682;49.286;10.788;2023-08-30T11:38:32;6.07;;;5.47;;
3337;SDS011;1682;49.286;10.788;2023-08-30T11:41:19;6.00;;;5.40;;
3337;SDS011;1682;49.286;10.788;2023-08-30T11:44:07;6.40;;;5.97;;
3337;SDS011;1682;49.286;10.788;2023-08-30T11:46:58;4.20;;;4.00;;
3337;SDS011;1682;49.286;10.788;2023-08-30T11:49:47;3.00;;;2.80;;
3337;SDS011;1682;49.286;10.788;2023-08-30T11:52:36;4.40;;;3.87;;
3337;SDS011;1682;49.286;10.788;2023-08-30T11:55:24;4.13;;;3.47;;
3337;SDS011;1682;49.286;10.788;2023-08-30T11:58:11;2.80;;;2.70;;
3337;SDS011;1682;49.286;10.788;2023-08-30T12:00:59;2.43;;;2.33;;
3337;SDS011;1682;49.286;10.788;2023-08-30T12:03:47;3.37;;;2.60;;
3337;SDS011;1682;49.286;10.788;2023-08-30T12:06:37;2.80;;;2.60;;
3337;SDS011;1682;49.286;10.788;2023-08-30T12:09:29;2.50;;;2.40;;
3337;SDS011;1682;49.286;10.788;2023-08-30T12:12:17;2.77;;;2.57;;
3337;SDS011;1682;49.286;10.788;2023-08-30T12:15:07;2.47;;;2.37;;
3337;SDS011;1682;49.286;10.788;2023-08-30T12:17:55;2.10;;;1.87;;
3337;SDS011;1682;49.286;10.788;2023-08-30T12:20:52;3.60;;;2.40;;
3337;SDS011;1682;49.286;10.788;2023-08-30T12:23:41;2.60;;;2.40;;
3337;SDS011;1682;49.286;10.788;2023-08-30T12:26:31;2.60;;;2.40;;
3337;SDS011;1682;49.286;10.788;2023-08-30T12:29:19;2.63;;;2.53;;
3337;SDS011;1682;49.286;10.788;2023-08-30T12:32:06;2.87;;;2.67;;
3337;SDS011;1682;49.286;10.788;2023-08-30T12:34:54;3.40;;;3.20;;
3337;SDS011;1682;49.286;10.788;2023-08-30T12:37:41;3.70;;;3.50;;
3337;SDS011;1682;49.286;10.788;2023-08-30T12:40:30;3.63;;;3.33;;
3337;SDS011;1682;49.286;10.788;2023-08-30T12:43:18;3.43;;;3.13;;
3337;SDS011;1682;49.286;10.788;2023-08-30T12:46:06;3.83;;;3.33;;
3337;SDS011;1682;49.286;10.788;2023-08-30T12:48:53;4.40;;;4.10;;
3337;SDS011;1682;49.286;10.788;2023-08-30T12:51:41;3.83;;;3.53;;
3337;SDS011;1682;49.286;10.788;2023-08-30T12:54:28;3.33;;;3.00;;
3337;SDS011;1682;49.286;10.788;2023-08-30T12:57:17;3.00;;;2.90;;
3337;SDS011;1682;49.286;10.788;2023-08-30T13:00:05;3.03;;;2.83;;
3337;SDS011;1682;49.286;10.788;2023-08-30T13:02:53;3.30;;;3.10;;
3337;SDS011;1682;49.286;10.788;2023-08-30T13:05:40;3.25;;;3.05;;
3337;SDS011;1682;49.286;10.788;2023-08-30T13:08:28;2.83;;;2.63;;
3337;SDS011;1682;49.286;10.788;2023-08-30T13:11:15;3.08;;;2.78;;
3337;SDS011;1682;49.286;10.788;2023-08-30T13:14:04;2.78;;;2.58;;
3337;SDS011;1682;49.286;10.788;2023-08-30T13:16:51;3.57;;;3.37;;
3337;SDS011;1682;49.286;10.788;2023-08-30T13:19:39;3.03;;;2.83;;
3337;SDS011;1682;49.286;10.788;2023-08-30T13:22:26;3.50;;;3.13;;
3337;SDS011;1682;49.286;10.788;2023-08-30T13:25:14;3.13;;;2.97;;
3337;SDS011;1682;49.286;10.788;2023-08-30T13:28:02;3.03;;;2.70;;
3337;SDS011;1682;49.286;10.788;2023-08-30T13:30:50;4.17;;;3.97;;
3337;SDS011;1682;49.286;10.788;2023-08-30T13:33:39;3.40;;;3.20;;
3337;SDS011;1682;49.286;10.788;2023-08-30T13:36:27;5.17;;;2.50;;
3337;SDS011;1682;49.286;10.788;2023-08-30T13:39:14;2.20;;;2.10;;
3337;SDS011;1682;49.286;10.788;2023-08-30T13:42:02;3.03;;;2.83;;
3337;SDS011;1682;49.286;10.788;2023-08-30T13:44:52;2.53;;;2.43;;
3337;SDS011;1682;49.286;10.788;2023-08-30T13:47:41;2.90;;;2.70;;
3337;SDS011;1682;49.286;10.788;2023-08-30T13:50:30;2.50;;;2.30;;
3337;SDS011;1682;49.286;10.788;2023-08-30T13:53:17;3.03;;;2.83;;
3337;SDS011;1682;49.286;10.788;2023-08-30T13:56:04;2.50;;;2.37;;
3337;SDS011;1682;49.286;10.788;2023-08-30T13:58:52;2.80;;;2.60;;
3337;SDS011;1682;49.286;10.788;2023-08-30T14:01:39;2.03;;;1.90;;
3337;SDS011;1682;49.286;10.788;2023-08-30T14:04:28;6.33;;;3.57;;
3337;SDS011;1682;49.286;10.788;2023-08-30T14:07:17;14.63;;;4.13;;
3337;SDS011;1682;49.286;10.788;2023-08-30T14:10:05;5.93;;;5.03;;
3337;SDS011;1682;49.286;10.788;2023-08-30T14:12:53;3.93;;;3.00;;
3337;SDS011;1682;49.286;10.788;2023-08-30T14:15:41;2.77;;;2.57;;
3337;SDS011;1682;49.286;10.788;2023-08-30T14:18:28;2.87;;;2.67;;
3337;SDS011;1682;49.286;10.788;2023-08-30T14:21:17;2.50;;;2.30;;
3337;SDS011;1682;49.286;10.788;2023-08-30T14:24:05;3.10;;;2.40;;
3337;SDS011;1682;49.286;10.788;2023-08-30T14:26:52;2.70;;;2.40;;
3337;SDS011;1682;49.286;10.788;2023-08-30T14:29:39;2.60;;;2.50;;
3337;SDS011;1682;49.286;10.788;2023-08-30T14:32:27;3.17;;;2.30;;
3337;SDS011;1682;49.286;10.788;2023-08-30T14:35:14;2.30;;;2.20;;
3337;SDS011;1682;49.286;10.788;2023-08-30T14:38:03;5.30;;;2.20;;
3337;SDS011;1682;49.286;10.788;2023-08-30T14:40:54;2.43;;;2.33;;
3337;SDS011;1682;49.286;10.788;2023-08-30T14:43:42;2.90;;;2.70;;
3337;SDS011;1682;49.286;10.788;2023-08-30T14:46:29;3.10;;;2.97;;
3337;SDS011;1682;49.286;10.788;2023-08-30T14:49:17;3.43;;;3.13;;
3337;SDS011;1682;49.286;10.788;2023-08-30T14:52:04;3.47;;;3.27;;
3337;SDS011;1682;49.286;10.788;2023-08-30T14:54:53;3.20;;;3.00;;
3337;SDS011;1682;49.286;10.788;2023-08-30T14:57:40;2.50;;;2.40;;
3337;SDS011;1682;49.286;10.788;2023-08-30T15:00:28;3.30;;;3.00;;
3337;SDS011;1682;49.286;10.788;2023-08-30T15:03:15;6.77;;;3.20;;
3337;SDS011;1682;49.286;10.788;2023-08-30T15:06:03;3.70;;;3.40;;
3337;SDS011;1682;49.286;10.788;2023-08-30T15:08:50;4.20;;;3.90;;
3337;SDS011;1682;49.286;10.788;2023-08-30T15:11:39;3.77;;;3.47;;
3337;SDS011;1682;49.286;10.788;2023-08-30T15:14:27;2.87;;;2.77;;
3337;SDS011;1682;49.286;10.788;2023-08-30T15:17:14;3.53;;;3.20;;
3337;SDS011;1682;49.286;10.788;2023-08-30T15:20:02;9.53;;;3.20;;
3337;SDS011;1682;49.286;10.788;2023-08-30T15:22:50;3.50;;;3.20;;
3337;SDS011;1682;49.286;10.788;2023-08-30T15:25:39;3.33;;;3.13;;
3337;SDS011;1682;49.286;10.788;2023-08-30T15:28:27;22.90;;;17.23;;
3337;SDS011;1682;49.286;10.788;2023-08-30T15:31:15;8.10;;;7.60;;
3337;SDS011;1682;49.286;10.788;2023-08-30T15:34:04;3.20;;;3.00;;
3337;SDS011;1682;49.286;10.788;2023-08-30T15:36:51;2.93;;;2.77;;
3337;SDS011;1682;49.286;10.788;2023-08-30T15:39:39;3.87;;;3.07;;
3337;SDS011;1682;49.286;10.788;2023-08-30T15:42:27;2.70;;;2.60;;
3337;SDS011;1682;49.286;10.788;2023-08-30T15:45:15;5.13;;;4.73;;
3337;SDS011;1682;49.286;10.788;2023-08-30T15:48:03;3.33;;;3.13;;
3337;SDS011;1682;49.286;10.788;2023-08-30T15:50:51;2.40;;;2.30;;
3337;SDS011;1682;49.286;10.788;2023-08-30T15:53:38;2.83;;;2.63;;
3337;SDS011;1682;49.286;10.788;2023-08-30T15:56:26;3.87;;;3.43;;
3337;SDS011;1682;49.286;10.788;2023-08-30T15:59:14;3.80;;;3.60;;
3337;SDS011;1682;49.286;10.788;2023-08-30T16:02:03;4.67;;;4.40;;
3337;SDS011;1682;49.286;10.788;2023-08-30T16:04:50;4.40;;;4.00;;
3337;SDS011;1682;49.286;10.788;2023-08-30T16:07:38;4.37;;;4.13;;
3337;SDS011;1682;49.286;10.788;2023-08-30T16:10:25;4.40;;;4.13;;
3337;SDS011;1682;49.286;10.788;2023-08-30T16:13:13;3.80;;;3.40;;
3337;SDS011;1682;49.286;10.788;2023-08-30T16:16:00;3.50;;;3.20;;
3337;SDS011;1682;49.286;10.788;2023-08-30T16:18:49;3.80;;;3.57;;
3337;SDS011;1682;49.286;10.788;2023-08-30T16:21:36;3.40;;;3.20;;
3337;SDS011;1682;49.286;10.788;2023-08-30T16:24:24;3.03;;;2.83;;
3337;SDS011;1682;49.286;10.788;2023-08-30T16:27:13;3.00;;;2.80;;
3337;SDS011;1682;49.286;10.788;2023-08-30T16:30:01;3.97;;;3.50;;
3337;SDS011;1682;49.286;10.788;2023-08-30T16:32:49;3.67;;;3.47;;
3337;SDS011;1682;49.286;10.788;2023-08-30T16:35:38;6.73;;;6.23;;
3337;SDS011;1682;49.286;10.788;2023-08-30T16:38:25;5.80;;;4.33;;
3337;SDS011;1682;49.286;10.788;2023-08-30T16:41:13;4.43;;;4.13;;
3337;SDS011;1682;49.286;10.788;2023-08-30T16:44:00;3.60;;;3.40;;
3337;SDS011;1682;49.286;10.788;2023-08-30T16:46:48;4.57;;;4.27;;
3337;SDS011;1682;49.286;10.788;2023-08-30T16:49:36;7.13;;;6.40;;
3337;SDS011;1682;49.286;10.788;2023-08-30T16:52:25;3.63;;;3.43;;
3337;SDS011;1682;49.286;10.788;2023-08-30T16:55:12;4.70;;;4.30;;
3337;SDS011;1682;49.286;10.788;2023-08-30T16:58:01;3.60;;;3.40;;
3337;SDS011;1682;49.286;10.788;2023-08-30T17:00:49;3.80;;;3.50;;